sensor_id;sensor_type;location;lat;lon;timestamp;pressure;altitude;pressure_sealevel;temperature;humidity
48053;BME280;33824;51.600;5.718;2023-04-28T00:02:01;101167.13;;;10.15;60.73
48053;BME280;33824;51.600;5.718;2023-04-28T00:04:27;101171.59;;;10.15;61.08
48053;BME280;33824;51.600;5.718;2023-04-28T00:06:53;101167.38;;;10.12;61.22
48053;BME280;33824;51.600;5.718;2023-04-28T00:09:18;101164.22;;;10.08;61.66
48053;BME280;33824;51.600;5.718;2023-04-28T00:11:44;101164.53;;;10.05;61.76
48053;BME280;33824;51.600;5.718;2023-04-28T00:14:11;101159.56;;;10.02;62.30
48053;BME280;33824;51.600;5.718;2023-04-28T00:16:36;101159.56;;;10.02;62.39
48053;BME280;33824;51.600;5.718;2023-04-28T00:19:02;101153.22;;;10.03;62.42
48053;BME280;33824;51.600;5.718;2023-04-28T00:21:28;101153.22;;;10.03;62.39
48053;BME280;33824;51.600;5.718;2023-04-28T00:23:54;101140.06;;;10.02;62.96
48053;BME280;33824;51.600;5.718;2023-04-28T00:26:19;101144.75;;;10.00;63.25
48053;BME280;33824;51.600;5.718;2023-04-28T00:28:45;101142.22;;;9.98;63.26
48053;BME280;33824;51.600;5.718;2023-04-28T00:31:12;101137.88;;;9.97;63.11
48053;BME280;33824;51.600;5.718;2023-04-28T00:33:39;101149.38;;;9.98;63.39
48053;BME280;33824;51.600;5.718;2023-04-28T00:36:05;101147.69;;;9.97;63.59
48053;BME280;33824;51.600;5.718;2023-04-28T00:38:31;101141.72;;;9.95;63.78
48053;BME280;33824;51.600;5.718;2023-04-28T00:40:56;101136.53;;;9.93;63.93
48053;BME280;33824;51.600;5.718;2023-04-28T00:43:22;101141.06;;;9.93;64.28
48053;BME280;33824;51.600;5.718;2023-04-28T00:45:48;101135.72;;;9.93;64.40
48053;BME280;33824;51.600;5.718;2023-04-28T00:48:15;101128.03;;;9.90;64.49
48053;BME280;33824;51.600;5.718;2023-04-28T00:50:42;101120.72;;;9.84;65.40
48053;BME280;33824;51.600;5.718;2023-04-28T00:53:09;101116.06;;;9.78;65.78
48053;BME280;33824;51.600;5.718;2023-04-28T00:55:36;101116.53;;;9.73;66.17
48053;BME280;33824;51.600;5.718;2023-04-28T00:58:02;101108.69;;;9.72;66.02
48053;BME280;33824;51.600;5.718;2023-04-28T01:00:29;101100.53;;;9.65;66.46
48053;BME280;33824;51.600;5.718;2023-04-28T01:02:56;101106.63;;;9.49;66.91
48053;BME280;33824;51.600;5.718;2023-04-28T01:05:23;101099.25;;;9.35;67.50
48053;BME280;33824;51.600;5.718;2023-04-28T01:07:50;101090.06;;;9.30;68.28
48053;BME280;33824;51.600;5.718;2023-04-28T01:10:15;101099.34;;;9.26;69.04
48053;BME280;33824;51.600;5.718;2023-04-28T01:12:41;101102.84;;;9.26;68.23
48053;BME280;33824;51.600;5.718;2023-04-28T01:15:11;101100.88;;;9.28;68.33
48053;BME280;33824;51.600;5.718;2023-04-28T01:17:38;101094.72;;;9.28;68.86
48053;BME280;33824;51.600;5.718;2023-04-28T01:20:04;101095.72;;;9.27;68.96
48053;BME280;33824;51.600;5.718;2023-04-28T01:22:30;101090.25;;;9.28;68.87
48053;BME280;33824;51.600;5.718;2023-04-28T01:24:55;101087.41;;;9.30;69.42
48053;BME280;33824;51.600;5.718;2023-04-28T01:27:22;101076.09;;;9.28;69.55
48053;BME280;33824;51.600;5.718;2023-04-28T01:29:47;101078.06;;;9.26;70.17
48053;BME280;33824;51.600;5.718;2023-04-28T01:32:13;101068.59;;;9.23;70.46
48053;BME280;33824;51.600;5.718;2023-04-28T01:34:38;101069.56;;;9.22;70.63
48053;BME280;33824;51.600;5.718;2023-04-28T01:37:04;101061.09;;;9.19;71.21
48053;BME280;33824;51.600;5.718;2023-04-28T01:39:29;101051.44;;;9.18;71.32
48053;BME280;33824;51.600;5.718;2023-04-28T01:41:55;101054.94;;;9.18;71.34
48053;BME280;33824;51.600;5.718;2023-04-28T01:44:20;101049.47;;;9.20;71.35
48053;BME280;33824;51.600;5.718;2023-04-28T01:46:46;101053.78;;;9.21;71.62
48053;BME280;33824;51.600;5.718;2023-04-28T01:49:11;101051.28;;;9.19;72.03
48053;BME280;33824;51.600;5.718;2023-04-28T01:51:39;101050.59;;;9.17;72.16
48053;BME280;33824;51.600;5.718;2023-04-28T01:54:06;101055.91;;;9.17;72.19
48053;BME280;33824;51.600;5.718;2023-04-28T01:56:32;101042.78;;;9.15;72.55
48053;BME280;33824;51.600;5.718;2023-04-28T01:58:57;101047.59;;;9.12;73.44
48053;BME280;33824;51.600;5.718;2023-04-28T02:01:23;101044.75;;;9.13;73.13
48053;BME280;33824;51.600;5.718;2023-04-28T02:03:48;101040.28;;;9.14;73.28
48053;BME280;33824;51.600;5.718;2023-04-28T02:06:14;101029.97;;;9.11;73.93
48053;BME280;33824;51.600;5.718;2023-04-28T02:08:40;101027.44;;;9.09;74.66
48053;BME280;33824;51.600;5.718;2023-04-28T02:11:06;101023.81;;;9.10;74.32
48053;BME280;33824;51.600;5.718;2023-04-28T02:13:31;101016.50;;;9.12;74.31
48053;BME280;33824;51.600;5.718;2023-04-28T02:15:59;101028.97;;;9.12;74.09
48053;BME280;33824;51.600;5.718;2023-04-28T02:18:25;101027.66;;;9.16;74.40
48053;BME280;33824;51.600;5.718;2023-04-28T02:20:51;101032.34;;;9.22;73.77
48053;BME280;33824;51.600;5.718;2023-04-28T02:23:17;101037.31;;;9.25;73.78
48053;BME280;33824;51.600;5.718;2023-04-28T02:25:42;101035.34;;;9.27;73.76
48053;BME280;33824;51.600;5.718;2023-04-28T02:28:08;101034.88;;;9.32;73.33
48053;BME280;33824;51.600;5.718;2023-04-28T02:30:34;101028.88;;;9.30;74.07
48053;BME280;33824;51.600;5.718;2023-04-28T02:32:59;101023.72;;;9.28;74.30
48053;BME280;33824;51.600;5.718;2023-04-28T02:35:25;101025.53;;;9.28;74.29
48053;BME280;33824;51.600;5.718;2023-04-28T02:37:51;101016.03;;;9.25;74.89
48053;BME280;33824;51.600;5.718;2023-04-28T02:40:17;101006.91;;;9.28;74.84
48053;BME280;33824;51.600;5.718;2023-04-28T02:42:42;100994.09;;;9.23;75.46
48053;BME280;33824;51.600;5.718;2023-04-28T02:45:08;100994.09;;;9.23;75.96
48053;BME280;33824;51.600;5.718;2023-04-28T02:47:34;100981.28;;;9.19;76.56
48053;BME280;33824;51.600;5.718;2023-04-28T02:49:59;100966.81;;;9.21;76.40
48053;BME280;33824;51.600;5.718;2023-04-28T02:52:26;100964.84;;;9.23;76.46
48053;BME280;33824;51.600;5.718;2023-04-28T02:54:52;100971.00;;;9.24;76.54
48053;BME280;33824;51.600;5.718;2023-04-28T02:57:22;100968.16;;;9.25;76.34
48053;BME280;33824;51.600;5.718;2023-04-28T02:59:48;100957.03;;;9.30;76.88
48053;BME280;33824;51.600;5.718;2023-04-28T03:02:13;100951.69;;;9.30;76.83
48053;BME280;33824;51.600;5.718;2023-04-28T03:04:40;100939.88;;;9.32;76.76
48053;BME280;33824;51.600;5.718;2023-04-28T03:07:05;100928.75;;;9.29;77.77
48053;BME280;33824;51.600;5.718;2023-04-28T03:09:31;100918.28;;;9.27;78.51
48053;BME280;33824;51.600;5.718;2023-04-28T03:11:57;100931.41;;;9.29;78.19
48053;BME280;33824;51.600;5.718;2023-04-28T03:14:22;100941.56;;;9.33;78.12
48053;BME280;33824;51.600;5.718;2023-04-28T03:16:48;100950.38;;;9.34;78.52
48053;BME280;33824;51.600;5.718;2023-04-28T03:19:13;100949.06;;;9.38;78.40
48053;BME280;33824;51.600;5.718;2023-04-28T03:21:39;100943.59;;;9.39;78.70
48053;BME280;33824;51.600;5.718;2023-04-28T03:24:05;100951.25;;;9.42;78.35
48053;BME280;33824;51.600;5.718;2023-04-28T03:26:31;100941.75;;;9.48;78.60
48053;BME280;33824;51.600;5.718;2023-04-28T03:28:57;100933.47;;;9.51;78.72
48053;BME280;33824;51.600;5.718;2023-04-28T03:31:22;100926.47;;;9.50;79.28
48053;BME280;33824;51.600;5.718;2023-04-28T03:33:48;100923.47;;;9.53;79.11
48053;BME280;33824;51.600;5.718;2023-04-28T03:36:14;100926.78;;;9.55;79.11
48053;BME280;33824;51.600;5.718;2023-04-28T03:38:39;100922.97;;;9.57;79.29
48053;BME280;33824;51.600;5.718;2023-04-28T03:41:05;100928.31;;;9.66;79.28
48053;BME280;33824;51.600;5.718;2023-04-28T03:43:31;100924.63;;;9.67;79.39
48053;BME280;33824;51.600;5.718;2023-04-28T03:45:57;100920.63;;;9.71;79.61
48053;BME280;33824;51.600;5.718;2023-04-28T03:48:23;100921.13;;;9.74;79.64
48053;BME280;33824;51.600;5.718;2023-04-28T03:50:49;100916.47;;;9.76;79.66
48053;BME280;33824;51.600;5.718;2023-04-28T03:53:14;100914.47;;;9.78;79.79
48053;BME280;33824;51.600;5.718;2023-04-28T03:55:40;100915.16;;;9.80;80.44
48053;BME280;33824;51.600;5.718;2023-04-28T03:58:06;100909.50;;;9.83;80.07
48053;BME280;33824;51.600;5.718;2023-04-28T04:00:31;100911.81;;;9.86;80.39
48053;BME280;33824;51.600;5.718;2023-04-28T04:02:57;100908.81;;;9.89;80.30
48053;BME280;33824;51.600;5.718;2023-04-28T04:05:23;100902.97;;;9.94;80.38
48053;BME280;33824;51.600;5.718;2023-04-28T04:07:49;100902.63;;;9.97;80.38
48053;BME280;33824;51.600;5.718;2023-04-28T04:10:14;100900.50;;;10.00;80.67
48053;BME280;33824;51.600;5.718;2023-04-28T04:12:42;100894.63;;;10.05;80.62
48053;BME280;33824;51.600;5.718;2023-04-28T04:15:07;100910.31;;;10.08;80.75
48053;BME280;33824;51.600;5.718;2023-04-28T04:17:33;100907.44;;;10.09;81.05
48053;BME280;33824;51.600;5.718;2023-04-28T04:19:59;100904.63;;;10.11;80.89
48053;BME280;33824;51.600;5.718;2023-04-28T04:22:24;100905.66;;;10.18;81.06
48053;BME280;33824;51.600;5.718;2023-04-28T04:24:50;100901.47;;;10.24;81.04
48053;BME280;33824;51.600;5.718;2023-04-28T04:27:15;100906.97;;;10.30;81.10
48053;BME280;33824;51.600;5.718;2023-04-28T04:29:41;100903.94;;;10.33;81.15
48053;BME280;33824;51.600;5.718;2023-04-28T04:32:07;100898.47;;;10.35;81.09
48053;BME280;33824;51.600;5.718;2023-04-28T04:34:32;100890.28;;;10.36;80.89
48053;BME280;33824;51.600;5.718;2023-04-28T04:36:58;100887.59;;;10.36;81.80
48053;BME280;33824;51.600;5.718;2023-04-28T04:39:23;100884.78;;;10.38;81.91
48053;BME280;33824;51.600;5.718;2023-04-28T04:41:49;100881.59;;;10.42;82.00
48053;BME280;33824;51.600;5.718;2023-04-28T04:44:14;100883.09;;;10.45;82.07
48053;BME280;33824;51.600;5.718;2023-04-28T04:46:40;100888.06;;;10.48;82.08
48053;BME280;33824;51.600;5.718;2023-04-28T04:49:06;100889.75;;;10.49;82.22
48053;BME280;33824;51.600;5.718;2023-04-28T04:51:32;100890.38;;;10.51;82.39
48053;BME280;33824;51.600;5.718;2023-04-28T04:53:57;100892.88;;;10.52;82.18
48053;BME280;33824;51.600;5.718;2023-04-28T04:56:23;100891.06;;;10.53;82.35
48053;BME280;33824;51.600;5.718;2023-04-28T04:58:50;100885.53;;;10.54;82.51
48053;BME280;33824;51.600;5.718;2023-04-28T05:01:16;100883.19;;;10.59;82.50
48053;BME280;33824;51.600;5.718;2023-04-28T05:03:41;100886.69;;;10.60;82.65
48053;BME280;33824;51.600;5.718;2023-04-28T05:06:07;100881.00;;;10.63;82.84
48053;BME280;33824;51.600;5.718;2023-04-28T05:08:32;100877.81;;;10.68;82.90
48053;BME280;33824;51.600;5.718;2023-04-28T05:10:58;100876.28;;;10.73;82.89
48053;BME280;33824;51.600;5.718;2023-04-28T05:13:25;100868.75;;;10.77;83.00
48053;BME280;33824;51.600;5.718;2023-04-28T05:15:51;100879.09;;;10.80;83.10
48053;BME280;33824;51.600;5.718;2023-04-28T05:18:16;100877.75;;;10.84;83.30
48053;BME280;33824;51.600;5.718;2023-04-28T05:20:42;100873.38;;;10.91;83.17
48053;BME280;33824;51.600;5.718;2023-04-28T05:23:07;100867.53;;;10.95;83.68
48053;BME280;33824;51.600;5.718;2023-04-28T05:25:34;100873.97;;;11.01;83.58
48053;BME280;33824;51.600;5.718;2023-04-28T05:27:59;100868.59;;;11.09;83.47
48053;BME280;33824;51.600;5.718;2023-04-28T05:30:29;100861.59;;;11.08;83.61
48053;BME280;33824;51.600;5.718;2023-04-28T05:32:54;100859.75;;;11.08;83.77
48053;BME280;33824;51.600;5.718;2023-04-28T05:35:20;100847.88;;;11.11;84.07
48053;BME280;33824;51.600;5.718;2023-04-28T05:37:45;100842.69;;;11.18;84.01
48053;BME280;33824;51.600;5.718;2023-04-28T05:40:11;100834.16;;;11.22;84.47
48053;BME280;33824;51.600;5.718;2023-04-28T05:42:37;100833.44;;;11.28;84.43
48053;BME280;33824;51.600;5.718;2023-04-28T05:45:02;100837.22;;;11.34;84.22
48053;BME280;33824;51.600;5.718;2023-04-28T05:47:28;100841.19;;;11.38;84.75
48053;BME280;33824;51.600;5.718;2023-04-28T05:49:55;100847.19;;;11.40;84.85
48053;BME280;33824;51.600;5.718;2023-04-28T05:52:20;100845.34;;;11.40;85.06
48053;BME280;33824;51.600;5.718;2023-04-28T05:54:46;100853.63;;;11.45;85.01
48053;BME280;33824;51.600;5.718;2023-04-28T05:57:13;100854.09;;;11.49;85.24
48053;BME280;33824;51.600;5.718;2023-04-28T05:59:39;100848.59;;;11.50;85.68
48053;BME280;33824;51.600;5.718;2023-04-28T06:02:05;100857.91;;;11.54;85.74
48053;BME280;33824;51.600;5.718;2023-04-28T06:04:31;100840.81;;;11.64;85.81
48053;BME280;33824;51.600;5.718;2023-04-28T06:06:56;100839.75;;;11.73;85.52
48053;BME280;33824;51.600;5.718;2023-04-28T06:09:22;100839.22;;;11.77;86.03
48053;BME280;33824;51.600;5.718;2023-04-28T06:11:47;100851.34;;;11.80;85.94
48053;BME280;33824;51.600;5.718;2023-04-28T06:14:13;100842.81;;;11.84;86.20
48053;BME280;33824;51.600;5.718;2023-04-28T06:16:38;100847.78;;;11.87;86.01
48053;BME280;33824;51.600;5.718;2023-04-28T06:19:04;100846.22;;;11.93;86.10
48053;BME280;33824;51.600;5.718;2023-04-28T06:21:29;100851.88;;;11.98;86.11
48053;BME280;33824;51.600;5.718;2023-04-28T06:23:56;100846.31;;;11.99;86.17
48053;BME280;33824;51.600;5.718;2023-04-28T06:26:22;100833.25;;;12.05;86.52
48053;BME280;33824;51.600;5.718;2023-04-28T06:28:48;100839.34;;;12.13;86.45
48053;BME280;33824;51.600;5.718;2023-04-28T06:31:14;100849.75;;;12.23;86.48
48053;BME280;33824;51.600;5.718;2023-04-28T06:33:40;100856.47;;;12.33;86.37
48053;BME280;33824;51.600;5.718;2023-04-28T06:36:06;100856.75;;;12.38;86.02
48053;BME280;33824;51.600;5.718;2023-04-28T06:38:32;100854.53;;;12.42;86.00
48053;BME280;33824;51.600;5.718;2023-04-28T06:40:58;100844.28;;;12.45;86.07
48053;BME280;33824;51.600;5.718;2023-04-28T06:43:23;100846.03;;;12.53;85.82
48053;BME280;33824;51.600;5.718;2023-04-28T06:45:49;100839.59;;;12.62;86.15
48053;BME280;33824;51.600;5.718;2023-04-28T06:48:14;100844.25;;;12.75;86.22
48053;BME280;33824;51.600;5.718;2023-04-28T06:50:40;100836.94;;;12.83;85.97
48053;BME280;33824;51.600;5.718;2023-04-28T06:53:05;100832.59;;;12.82;85.97
48053;BME280;33824;51.600;5.718;2023-04-28T06:55:33;100833.72;;;12.88;86.16
48053;BME280;33824;51.600;5.718;2023-04-28T06:57:58;100830.34;;;13.01;86.46
48053;BME280;33824;51.600;5.718;2023-04-28T07:00:24;100836.38;;;13.09;86.39
48053;BME280;33824;51.600;5.718;2023-04-28T07:02:50;100831.84;;;13.24;86.42
48053;BME280;33824;51.600;5.718;2023-04-28T07:05:15;100827.94;;;13.48;86.80
48053;BME280;33824;51.600;5.718;2023-04-28T07:07:41;100814.84;;;13.60;85.93
48053;BME280;33824;51.600;5.718;2023-04-28T07:10:07;100824.41;;;13.69;86.27
48053;BME280;33824;51.600;5.718;2023-04-28T07:12:33;100818.22;;;13.68;85.92
48053;BME280;33824;51.600;5.718;2023-04-28T07:14:58;100827.56;;;13.79;85.75
48053;BME280;33824;51.600;5.718;2023-04-28T07:17:24;100830.94;;;13.87;85.71
48053;BME280;33824;51.600;5.718;2023-04-28T07:19:51;100826.25;;;13.96;85.51
48053;BME280;33824;51.600;5.718;2023-04-28T07:22:17;100829.72;;;13.90;85.20
48053;BME280;33824;51.600;5.718;2023-04-28T07:24:43;100825.00;;;13.92;84.92
48053;BME280;33824;51.600;5.718;2023-04-28T07:27:09;100824.75;;;13.87;85.31
48053;BME280;33824;51.600;5.718;2023-04-28T07:29:34;100818.00;;;13.98;85.64
48053;BME280;33824;51.600;5.718;2023-04-28T07:32:01;100815.84;;;14.14;85.47
48053;BME280;33824;51.600;5.718;2023-04-28T07:34:27;100816.53;;;14.23;85.30
48053;BME280;33824;51.600;5.718;2023-04-28T07:36:53;100814.78;;;14.43;85.40
48053;BME280;33824;51.600;5.718;2023-04-28T07:39:18;100815.03;;;14.55;85.43
48053;BME280;33824;51.600;5.718;2023-04-28T07:41:44;100801.84;;;14.60;85.11
48053;BME280;33824;51.600;5.718;2023-04-28T07:44:10;100804.94;;;14.57;85.13
48053;BME280;33824;51.600;5.718;2023-04-28T07:46:36;100806.63;;;14.71;85.16
48053;BME280;33824;51.600;5.718;2023-04-28T07:49:02;100809.56;;;14.89;85.10
48053;BME280;33824;51.600;5.718;2023-04-28T07:51:29;100804.22;;;14.96;84.83
48053;BME280;33824;51.600;5.718;2023-04-28T07:53:55;100804.44;;;15.01;84.96
48053;BME280;33824;51.600;5.718;2023-04-28T07:56:21;100805.03;;;14.89;85.22
48053;BME280;33824;51.600;5.718;2023-04-28T07:58:47;100805.88;;;14.90;85.05
48053;BME280;33824;51.600;5.718;2023-04-28T08:01:13;100811.44;;;14.88;85.22
48053;BME280;33824;51.600;5.718;2023-04-28T08:03:38;100813.50;;;14.86;85.54
48053;BME280;33824;51.600;5.718;2023-04-28T08:06:04;100820.09;;;14.84;85.81
48053;BME280;33824;51.600;5.718;2023-04-28T08:08:29;100813.28;;;14.81;85.47
48053;BME280;33824;51.600;5.718;2023-04-28T08:10:55;100815.94;;;14.75;85.97
48053;BME280;33824;51.600;5.718;2023-04-28T08:13:21;100819.22;;;14.64;86.39
48053;BME280;33824;51.600;5.718;2023-04-28T08:15:47;100825.59;;;14.63;86.91
48053;BME280;33824;51.600;5.718;2023-04-28T08:18:13;100829.31;;;14.62;87.12
48053;BME280;33824;51.600;5.718;2023-04-28T08:20:41;100829.72;;;14.65;86.86
48053;BME280;33824;51.600;5.718;2023-04-28T08:23:07;100831.38;;;14.66;86.91
48053;BME280;33824;51.600;5.718;2023-04-28T08:25:33;100828.09;;;14.64;87.82
48053;BME280;33824;51.600;5.718;2023-04-28T08:27:59;100821.47;;;14.67;88.33
48053;BME280;33824;51.600;5.718;2023-04-28T08:30:25;100822.50;;;14.66;88.06
48053;BME280;33824;51.600;5.718;2023-04-28T08:32:50;100828.28;;;14.63;87.88
48053;BME280;33824;51.600;5.718;2023-04-28T08:35:16;100823.09;;;14.61;88.41
48053;BME280;33824;51.600;5.718;2023-04-28T08:37:43;100823.94;;;14.62;88.34
48053;BME280;33824;51.600;5.718;2023-04-28T08:40:10;100826.44;;;14.63;89.05
48053;BME280;33824;51.600;5.718;2023-04-28T08:42:36;100827.88;;;14.66;89.02
48053;BME280;33824;51.600;5.718;2023-04-28T08:45:05;100832.03;;;14.75;89.32
48053;BME280;33824;51.600;5.718;2023-04-28T08:47:37;100832.47;;;14.78;89.31
48053;BME280;33824;51.600;5.718;2023-04-28T08:52:31;100821.97;;;14.90;89.65
48053;BME280;33824;51.600;5.718;2023-04-28T08:55:06;100817.44;;;14.97;89.67
48053;BME280;33824;51.600;5.718;2023-04-28T08:57:36;100823.69;;;15.30;89.52
48053;BME280;33824;51.600;5.718;2023-04-28T09:00:03;100822.50;;;15.53;89.60
48053;BME280;33824;51.600;5.718;2023-04-28T09:02:29;100822.09;;;15.56;89.62
48053;BME280;33824;51.600;5.718;2023-04-28T09:04:54;100824.97;;;15.48;89.77
48053;BME280;33824;51.600;5.718;2023-04-28T09:07:20;100825.81;;;15.61;89.85
48053;BME280;33824;51.600;5.718;2023-04-28T09:09:45;100822.50;;;15.72;89.75
48053;BME280;33824;51.600;5.718;2023-04-28T09:12:11;100821.44;;;15.87;89.37
48053;BME280;33824;51.600;5.718;2023-04-28T09:14:38;100821.25;;;15.88;89.52
48053;BME280;33824;51.600;5.718;2023-04-28T09:17:11;100825.59;;;15.56;90.82
48053;BME280;33824;51.600;5.718;2023-04-28T09:19:38;100823.94;;;15.62;90.50
48053;BME280;33824;51.600;5.718;2023-04-28T09:22:05;100821.69;;;15.59;91.90
48053;BME280;33824;51.600;5.718;2023-04-28T09:24:40;100817.13;;;15.53;91.98
48053;BME280;33824;51.600;5.718;2023-04-28T09:27:08;100815.47;;;15.65;91.23
48053;BME280;33824;51.600;5.718;2023-04-28T09:29:51;100820.25;;;15.63;92.68
48053;BME280;33824;51.600;5.718;2023-04-28T09:32:21;100818.31;;;15.37;94.56
48053;BME280;33824;51.600;5.718;2023-04-28T09:34:49;100825.56;;;15.43;93.95
48053;BME280;33824;51.600;5.718;2023-04-28T09:37:16;100816.31;;;15.52;94.75
48053;BME280;33824;51.600;5.718;2023-04-28T09:39:44;100813.41;;;15.60;93.86
48053;BME280;33824;51.600;5.718;2023-04-28T09:42:09;100817.34;;;15.58;94.43
48053;BME280;33824;51.600;5.718;2023-04-28T09:44:35;100816.06;;;15.27;96.39
48053;BME280;33824;51.600;5.718;2023-04-28T09:47:18;100820.59;;;15.27;96.21
48053;BME280;33824;51.600;5.718;2023-04-28T09:49:56;100819.19;;;15.64;95.97
48053;BME280;33824;51.600;5.718;2023-04-28T09:52:23;100815.88;;;15.68;95.88
48053;BME280;33824;51.600;5.718;2023-04-28T09:54:50;100816.09;;;15.73;95.54
48053;BME280;33824;51.600;5.718;2023-04-28T09:57:16;100820.84;;;15.78;95.24
48053;BME280;33824;51.600;5.718;2023-04-28T09:59:47;100816.31;;;15.78;96.50
48053;BME280;33824;51.600;5.718;2023-04-28T10:02:14;100819.63;;;15.67;97.50
48053;BME280;33824;51.600;5.718;2023-04-28T10:04:44;100826.44;;;15.70;96.45
48053;BME280;33824;51.600;5.718;2023-04-28T10:07:11;100826.66;;;15.55;97.76
48053;BME280;33824;51.600;5.718;2023-04-28T10:09:37;100826.00;;;15.53;98.74
48053;BME280;33824;51.600;5.718;2023-04-28T10:12:04;100827.84;;;15.46;99.23
48053;BME280;33824;51.600;5.718;2023-04-28T10:14:31;100828.88;;;15.38;99.43
48053;BME280;33824;51.600;5.718;2023-04-28T10:16:58;100829.28;;;15.42;99.03
48053;BME280;33824;51.600;5.718;2023-04-28T10:19:24;100818.38;;;15.50;99.20
48053;BME280;33824;51.600;5.718;2023-04-28T10:22:21;100827.00;;;15.19;100.00
48053;BME280;33824;51.600;5.718;2023-04-28T10:25:07;100828.59;;;15.01;100.00
48053;BME280;33824;51.600;5.718;2023-04-28T10:27:41;100822.44;;;15.20;100.00
48053;BME280;33824;51.600;5.718;2023-04-28T10:30:24;100822.41;;;15.07;100.00
48053;BME280;33824;51.600;5.718;2023-04-28T10:38:03;100820.59;;;15.27;100.00
48053;BME280;33824;51.600;5.718;2023-04-28T10:40:33;100828.44;;;15.22;100.00
48053;BME280;33824;51.600;5.718;2023-04-28T10:42:59;100825.34;;;15.38;100.00
48053;BME280;33824;51.600;5.718;2023-04-28T10:48:19;100817.06;;;15.13;100.00
48053;BME280;33824;51.600;5.718;2023-04-28T10:56:17;100817.09;;;15.33;100.00
48053;BME280;33824;51.600;5.718;2023-04-28T10:58:56;100816.50;;;15.51;100.00
48053;BME280;33824;51.600;5.718;2023-04-28T11:01:26;100820.41;;;15.68;100.00
48053;BME280;33824;51.600;5.718;2023-04-28T11:03:55;100815.66;;;15.83;100.00
48053;BME280;33824;51.600;5.718;2023-04-28T11:06:35;100813.59;;;15.85;100.00
48053;BME280;33824;51.600;5.718;2023-04-28T11:16:55;100812.28;;;16.14;100.00
48053;BME280;33824;51.600;5.718;2023-04-28T11:19:27;100810.78;;;16.38;99.91
48053;BME280;33824;51.600;5.718;2023-04-28T11:21:55;100814.25;;;16.45;99.34
48053;BME280;33824;51.600;5.718;2023-04-28T11:24:25;100813.44;;;16.44;99.07
48053;BME280;33824;51.600;5.718;2023-04-28T11:26:51;100810.94;;;16.49;99.10
48053;BME280;33824;51.600;5.718;2023-04-28T11:29:29;100812.00;;;16.42;97.81
48053;BME280;33824;51.600;5.718;2023-04-28T11:31:56;100805.41;;;16.89;97.25
48053;BME280;33824;51.600;5.718;2023-04-28T11:34:22;100791.25;;;17.24;96.05
48053;BME280;33824;51.600;5.718;2023-04-28T11:36:49;100800.88;;;17.14;94.64
48053;BME280;33824;51.600;5.718;2023-04-28T11:39:14;100795.31;;;17.09;94.82
48053;BME280;33824;51.600;5.718;2023-04-28T11:41:44;100797.38;;;17.13;94.48
48053;BME280;33824;51.600;5.718;2023-04-28T11:44:16;100796.50;;;17.19;93.75
48053;BME280;33824;51.600;5.718;2023-04-28T11:47:04;100800.03;;;16.82;94.10
48053;BME280;33824;51.600;5.718;2023-04-28T11:49:31;100802.16;;;17.11;94.22
48053;BME280;33824;51.600;5.718;2023-04-28T11:52:05;100796.50;;;17.19;93.25
48053;BME280;33824;51.600;5.718;2023-04-28T11:54:31;100798.75;;;17.22;93.56
48053;BME280;33824;51.600;5.718;2023-04-28T11:56:58;100797.97;;;17.15;93.29
48053;BME280;33824;51.600;5.718;2023-04-28T11:59:30;100799.53;;;16.98;93.15
48053;BME280;33824;51.600;5.718;2023-04-28T12:01:58;100804.41;;;17.14;93.15
48053;BME280;33824;51.600;5.718;2023-04-28T12:04:31;100801.09;;;16.74;93.41
48053;BME280;33824;51.600;5.718;2023-04-28T12:07:04;100811.63;;;16.89;94.16
48053;BME280;33824;51.600;5.718;2023-04-28T12:09:31;100798.38;;;16.88;94.51
48053;BME280;33824;51.600;5.718;2023-04-28T12:11:59;100800.56;;;16.97;93.91
48053;BME280;33824;51.600;5.718;2023-04-28T12:14:26;100805.41;;;16.89;93.63
48053;BME280;33824;51.600;5.718;2023-04-28T12:16:52;100809.81;;;16.76;94.81
48053;BME280;33824;51.600;5.718;2023-04-28T12:19:18;100815.91;;;16.46;95.65
48053;BME280;33824;51.600;5.718;2023-04-28T12:22:02;100808.38;;;16.03;97.25
48053;BME280;33824;51.600;5.718;2023-04-28T12:24:29;100809.19;;;16.10;98.06
48053;BME280;33824;51.600;5.718;2023-04-28T12:27:13;100821.66;;;15.72;100.00
48053;BME280;33824;51.600;5.718;2023-04-28T12:29:41;100815.44;;;15.91;99.86
48053;BME280;33824;51.600;5.718;2023-04-28T12:32:11;100821.88;;;15.70;100.00
48053;BME280;33824;51.600;5.718;2023-04-28T12:34:37;100828.91;;;15.71;100.00
48053;BME280;33824;51.600;5.718;2023-04-28T12:37:04;100828.28;;;15.69;100.00
48053;BME280;33824;51.600;5.718;2023-04-28T12:39:31;100838.00;;;15.57;100.00
48053;BME280;33824;51.600;5.718;2023-04-28T12:41:58;100831.97;;;15.49;100.00
48053;BME280;33824;51.600;5.718;2023-04-28T12:44:25;100840.44;;;15.46;100.00
48053;BME280;33824;51.600;5.718;2023-04-28T12:46:53;100838.38;;;15.41;100.00
48053;BME280;33824;51.600;5.718;2023-04-28T12:49:19;100845.41;;;15.29;100.00
48053;BME280;33824;51.600;5.718;2023-04-28T12:51:45;100836.09;;;15.25;100.00
48053;BME280;33824;51.600;5.718;2023-04-28T12:54:10;100832.16;;;15.27;100.00
48053;BME280;33824;51.600;5.718;2023-04-28T12:56:36;100838.56;;;15.13;100.00
48053;BME280;33824;51.600;5.718;2023-04-28T12:59:02;100838.53;;;15.07;100.00
48053;BME280;33824;51.600;5.718;2023-04-28T13:01:28;100837.06;;;14.91;100.00
48053;BME280;33824;51.600;5.718;2023-04-28T13:03:54;100843.47;;;15.03;100.00
48053;BME280;33824;51.600;5.718;2023-04-28T13:06:20;100841.19;;;14.94;100.00
48053;BME280;33824;51.600;5.718;2023-04-28T13:08:45;100844.72;;;15.01;100.00
48053;BME280;33824;51.600;5.718;2023-04-28T13:11:11;100849.25;;;15.07;100.00
48053;BME280;33824;51.600;5.718;2023-04-28T13:13:36;100846.38;;;14.95;100.00
48053;BME280;33824;51.600;5.718;2023-04-28T13:16:02;100851.69;;;14.82;100.00